Time;durP1;ratioP1;P1;durP2;ratioP2;P2;SDS_P1;SDS_P2;PMS_P1;PMS_P2;Temp;Humidity;BMP_temperature;BMP_pressure;BME280_temperature;BME280_humidity;BME280_pressure;Samples;Min_cycle;Max_cycle;Signal;HPM_P1;HPM_P2
2023/07/01 00:00:08;;;;;;;3.35;1.60;;;20.20;82.30;;;;;;4981481;28;20468;-88
2023/07/01 00:02:36;;;;;;;2.63;1.40;;;20.20;82.40;;;;;;4981419;28;20519;-88
2023/07/01 00:05:06;;;;;;;2.15;1.30;;;20.20;82.30;;;;;;4970720;28;20130;-87
2023/07/01 00:07:32;;;;;;;2.25;1.23;;;20.20;82.40;;;;;;4990605;28;20483;-87
2023/07/01 00:09:57;;;;;;;2.47;1.50;;;20.20;82.40;;;;;;5002817;28;20034;-88
2023/07/01 00:12:23;;;;;;;2.92;1.50;;;20.20;82.40;;;;;;5002662;28;20071;-86
2023/07/01 00:14:48;;;;;;;3.13;1.52;;;20.20;82.40;;;;;;4984891;28;20035;-87
2023/07/01 00:17:16;;;;;;;3.47;1.70;;;20.10;82.30;;;;;;4950761;29;20139;-87
2023/07/01 00:19:42;;;;;;;2.50;1.55;;;20.20;82.40;;;;;;4945204;29;20508;-86
2023/07/01 00:22:08;;;;;;;2.25;1.50;;;20.20;82.40;;;;;;4944448;29;20069;-88
2023/07/01 00:24:33;;;;;;;3.00;1.60;;;20.20;82.40;;;;;;4968555;28;20027;-86
2023/07/01 00:26:59;;;;;;;1.98;1.38;;;20.20;82.00;;;;;;4999329;28;20029;-86
2023/07/01 00:29:24;;;;;;;2.90;1.55;;;20.20;82.30;;;;;;5006429;28;20026;-87
2023/07/01 00:31:50;;;;;;;2.42;1.30;;;20.20;82.30;;;;;;4988392;28;20129;-88
2023/07/01 00:34:15;;;;;;;2.33;1.52;;;20.20;82.30;;;;;;4977319;28;20024;-86
2023/07/01 00:36:41;;;;;;;2.88;1.33;;;20.20;82.30;;;;;;4957361;28;20424;-87
2023/07/01 00:39:06;;;;;;;2.60;1.50;;;20.20;82.30;;;;;;4973159;28;20130;-87
2023/07/01 00:41:32;;;;;;;2.92;1.60;;;20.10;82.30;;;;;;4991247;28;20122;-87
2023/07/01 00:43:58;;;;;;;2.75;1.40;;;20.20;82.30;;;;;;4976980;28;20399;-85
2023/07/01 00:46:23;;;;;;;2.63;1.42;;;20.20;82.30;;;;;;4974745;28;20023;-86
2023/07/01 00:48:49;;;;;;;2.88;1.70;;;20.20;82.20;;;;;;5008170;28;20019;-86
2023/07/01 00:51:15;;;;;;;2.13;1.50;;;20.20;82.40;;;;;;4989025;28;20026;-87
2023/07/01 00:53:40;;;;;;;2.72;1.48;;;20.20;82.30;;;;;;4984135;28;20014;-88
2023/07/01 00:56:06;;;;;;;2.05;1.40;;;20.20;82.30;;;;;;4966433;28;20451;-86
2023/07/01 00:58:32;;;;;;;2.10;1.38;;;20.30;82.30;;;;;;4997103;28;20050;-85
2023/07/01 01:01:02;;;;;;;2.30;1.38;;;20.20;82.20;;;;;;4990271;28;20364;-86
2023/07/01 01:03:37;;;;;;;2.60;1.50;;;20.30;82.10;;;;;;4987981;28;20026;-86
2023/07/01 01:06:33;;;;;;;2.85;1.52;;;20.30;82.10;;;;;;4957291;28;20087;-88
2023/07/01 01:09:02;;;;;;;2.33;1.40;;;20.30;82.10;;;;;;4986238;28;20030;-88
2023/07/01 01:11:32;;;;;;;2.35;1.30;;;20.30;82.00;;;;;;4985089;28;20038;-88
2023/07/01 01:13:59;;;;;;;1.55;1.20;;;20.30;82.00;;;;;;4981997;28;20031;-88
2023/07/01 01:16:26;;;;;;;2.97;1.60;;;20.30;82.00;;;;;;4969195;28;20121;-86
2023/07/01 01:18:54;;;;;;;3.20;1.70;;;20.30;81.90;;;;;;4982877;28;20030;-86
2023/07/01 01:21:21;;;;;;;2.78;1.67;;;20.30;81.70;;;;;;5004481;28;20395;-87
2023/07/01 01:23:58;;;;;;;2.13;1.45;;;20.30;81.90;;;;;;4998567;28;20031;-87
2023/07/01 01:26:27;;;;;;;2.85;1.42;;;20.30;82.20;;;;;;4967607;28;20027;-87
2023/07/01 01:28:53;;;;;;;2.25;1.40;;;20.20;82.30;;;;;;4965959;28;20431;-88
2023/07/01 01:31:20;;;;;;;2.17;1.35;;;20.20;82.40;;;;;;4965709;28;20070;-86
2023/07/01 01:33:46;;;;;;;2.65;1.58;;;20.20;82.40;;;;;;4963349;28;20053;-85
2023/07/01 01:36:34;;;;;;;3.53;1.58;;;20.20;82.40;;;;;;4959824;28;20062;-86
2023/07/01 01:39:05;;;;;;;3.00;1.60;;;20.20;82.40;;;;;;4982997;28;20026;-86
2023/07/01 01:42:20;;;;;;;2.97;1.70;;;20.20;82.50;;;;;;4983630;28;20023;-87
2023/07/01 01:44:52;;;;;;;2.70;1.60;;;20.20;82.50;;;;;;4968697;28;20035;-86
2023/07/01 01:47:28;;;;;;;2.70;1.40;;;20.10;82.50;;;;;;4986341;28;20022;-87
2023/07/01 01:49:58;;;;;;;2.63;1.50;;;20.10;82.40;;;;;;4946611;28;1018317;-86
2023/07/01 01:52:25;;;;;;;2.40;1.40;;;20.10;82.50;;;;;;4981772;28;20027;-86
2023/07/01 01:54:53;;;;;;;3.40;1.80;;;20.10;82.10;;;;;;4967010;28;20031;-87
2023/07/01 01:57:19;;;;;;;2.83;1.60;;;20.10;82.30;;;;;;4954292;29;20034;-86
2023/07/01 01:59:45;;;;;;;4.00;1.67;;;20.10;82.30;;;;;;4943660;29;20440;-86
2023/07/01 02:02:10;;;;;;;3.13;1.55;;;20.10;82.40;;;;;;4943546;29;20062;-85
2023/07/01 02:04:36;;;;;;;2.83;1.50;;;20.10;82.30;;;;;;4950792;28;20043;-86
2023/07/01 02:07:02;;;;;;;2.63;1.70;;;20.10;82.40;;;;;;4966406;28;20399;-86
2023/07/01 02:09:28;;;;;;;3.40;1.55;;;20.10;82.30;;;;;;4979874;28;20027;-85
2023/07/01 02:11:54;;;;;;;3.38;1.52;;;20.10;82.30;;;;;;4961305;28;20031;-85
2023/07/01 02:14:20;;;;;;;3.78;1.70;;;20.10;82.30;;;;;;4973395;28;20085;-86
2023/07/01 02:16:46;;;;;;;3.00;1.60;;;20.10;82.30;;;;;;4967594;28;20043;-86
2023/07/01 02:19:12;;;;;;;3.00;1.63;;;20.10;82.20;;;;;;4996295;28;20026;-86
2023/07/01 02:21:37;;;;;;;2.92;1.63;;;20.10;82.30;;;;;;4997319;28;20037;-87
2023/07/01 02:24:03;;;;;;;2.85;1.80;;;20.10;82.20;;;;;;4969673;28;20051;-86
2023/07/01 02:26:29;;;;;;;4.40;1.90;;;20.10;82.30;;;;;;4972979;28;20073;-86
2023/07/01 02:28:55;;;;;;;3.30;1.40;;;20.10;81.80;;;;;;4981031;28;20070;-86
2023/07/01 02:31:20;;;;;;;2.75;1.52;;;20.20;81.60;;;;;;4976136;28;20498;-86
2023/07/01 02:33:46;;;;;;;2.22;1.65;;;20.20;80.90;;;;;;4973374;28;20031;-86
2023/07/01 02:36:12;;;;;;;2.13;1.40;;;20.20;81.70;;;;;;4958698;28;20023;-86
2023/07/01 02:38:38;;;;;;;3.17;1.70;;;20.20;81.50;;;;;;4996025;28;20101;-85
2023/07/01 02:41:03;;;;;;;2.20;1.50;;;20.30;81.70;;;;;;4978366;28;20025;-86
2023/07/01 02:43:29;;;;;;;3.28;1.55;;;20.30;81.90;;;;;;4993128;28;20398;-86
2023/07/01 02:45:54;;;;;;;2.17;1.50;;;20.30;81.90;;;;;;4953788;28;20384;-86
2023/07/01 02:48:20;;;;;;;2.88;1.65;;;20.20;81.80;;;;;;4987496;28;20030;-86
2023/07/01 02:50:45;;;;;;;2.47;1.40;;;20.30;81.90;;;;;;4974709;28;20027;-86
2023/07/01 02:53:11;;;;;;;1.73;1.40;;;20.20;81.80;;;;;;4974541;28;20034;-85
2023/07/01 02:55:37;;;;;;;2.90;1.70;;;20.20;82.00;;;;;;4975786;28;20034;-86
2023/07/01 02:58:02;;;;;;;2.75;1.58;;;20.20;82.00;;;;;;4977173;28;20479;-86
2023/07/01 03:00:28;;;;;;;2.42;1.65;;;20.20;82.10;;;;;;4994699;28;20111;-86
2023/07/01 03:02:53;;;;;;;2.65;1.60;;;20.10;82.20;;;;;;4994840;28;20045;-86
2023/07/01 03:05:21;;;;;;;2.17;1.48;;;20.20;82.00;;;;;;4957984;28;20031;-86
2023/07/01 03:07:47;;;;;;;2.97;1.60;;;20.20;82.10;;;;;;4957207;28;20046;-85
2023/07/01 03:10:13;;;;;;;2.80;1.63;;;20.10;82.20;;;;;;4957251;28;20056;-87
2023/07/01 03:12:39;;;;;;;2.15;1.50;;;20.10;82.10;;;;;;4957656;28;20034;-87
2023/07/01 03:15:04;;;;;;;2.58;1.45;;;20.10;81.90;;;;;;4965799;28;20038;-86
2023/07/01 03:17:30;;;;;;;2.42;1.40;;;20.10;82.30;;;;;;4953722;28;20026;-86
2023/07/01 03:19:57;;;;;;;2.88;1.67;;;20.10;82.10;;;;;;4957401;28;20249;-85
2023/07/01 03:22:22;;;;;;;1.98;1.33;;;20.10;82.60;;;;;;4958166;28;20034;-87
2023/07/01 03:24:48;;;;;;;2.25;1.50;;;20.10;82.00;;;;;;4965239;28;20051;-86
2023/07/01 03:27:13;;;;;;;2.05;1.58;;;20.10;81.40;;;;;;4986252;28;20042;-87
2023/07/01 03:29:39;;;;;;;3.00;1.63;;;20.10;81.90;;;;;;4986906;28;20034;-87
2023/07/01 03:32:05;;;;;;;2.45;1.60;;;20.10;81.60;;;;;;4987098;28;20444;-87
2023/07/01 03:34:30;;;;;;;1.73;1.45;;;20.10;82.40;;;;;;4984575;28;20039;-86
2023/07/01 03:36:56;;;;;;;2.30;1.58;;;20.10;82.50;;;;;;4971362;28;20054;-87
2023/07/01 03:39:21;;;;;;;2.05;1.48;;;20.10;82.30;;;;;;4980701;28;20042;-86
2023/07/01 03:41:47;;;;;;;2.35;1.48;;;20.10;82.40;;;;;;4988085;28;20518;-87
2023/07/01 03:44:12;;;;;;;2.20;1.50;;;20.10;82.00;;;;;;4979713;28;20108;-87
2023/07/01 03:46:38;;;;;;;2.30;1.60;;;20.00;82.10;;;;;;4987325;28;20550;-86
2023/07/01 03:49:04;;;;;;;1.85;1.35;;;20.00;80.40;;;;;;4985595;28;20023;-87
2023/07/01 03:51:30;;;;;;;2.50;1.67;;;20.00;81.20;;;;;;4979966;28;20062;-86
2023/07/01 03:53:56;;;;;;;2.65;1.48;;;20.10;81.40;;;;;;4959140;28;20499;-87
2023/07/01 03:56:22;;;;;;;2.60;1.60;;;20.10;82.40;;;;;;4975831;28;20034;-87
2023/07/01 03:58:47;;;;;;;2.90;1.70;;;20.10;82.10;;;;;;4979425;28;20022;-87
2023/07/01 04:01:15;;;;;;;2.85;1.70;;;20.10;82.00;;;;;;4981516;28;20369;-86
2023/07/01 04:03:41;;;;;;;1.92;1.52;;;20.10;82.40;;;;;;4980780;28;20019;-86
2023/07/01 04:06:06;;;;;;;3.05;1.60;;;20.10;81.30;;;;;;4960576;28;20034;-87
2023/07/01 04:08:32;;;;;;;2.17;1.42;;;20.20;81.50;;;;;;4983433;28;20034;-87
2023/07/01 04:10:58;;;;;;;2.55;1.60;;;20.20;81.80;;;;;;4982539;28;20015;-87
2023/07/01 04:13:24;;;;;;;2.72;1.50;;;20.20;81.90;;;;;;4981585;28;20458;-86
2023/07/01 04:15:49;;;;;;;3.40;1.52;;;20.20;81.90;;;;;;4971454;28;20535;-87
2023/07/01 04:18:15;;;;;;;2.80;1.50;;;20.20;81.80;;;;;;4994742;28;20039;-87
2023/07/01 04:20:40;;;;;;;1.80;1.40;;;20.20;81.80;;;;;;4981849;28;20045;-87
2023/07/01 04:23:06;;;;;;;3.05;1.50;;;20.20;81.50;;;;;;4982549;28;20034;-87
2023/07/01 04:25:31;;;;;;;2.03;1.50;;;20.20;81.70;;;;;;4972367;28;20022;-87
2023/07/01 04:27:57;;;;;;;2.13;1.55;;;20.20;81.50;;;;;;4994988;28;20026;-87
2023/07/01 04:30:23;;;;;;;2.72;1.65;;;20.20;81.90;;;;;;4984913;28;20061;-87
2023/07/01 04:32:49;;;;;;;2.72;1.50;;;20.10;81.90;;;;;;4984381;28;20570;-86
2023/07/01 04:35:14;;;;;;;2.17;1.40;;;20.10;82.20;;;;;;4979591;28;20066;-87
2023/07/01 04:37:43;;;;;;;2.42;1.50;;;20.10;82.20;;;;;;4946826;29;20444;-87
2023/07/01 04:40:09;;;;;;;3.35;1.90;;;21.00;82.70;;;;;;4959702;29;20058;-88
2023/07/01 04:42:35;;;;;;;3.80;1.63;;;20.10;82.30;;;;;;4951118;28;20031;-87
2023/07/01 04:45:05;;;;;;;1.65;1.30;;;20.10;82.30;;;;;;4957924;28;20065;-88
2023/07/01 06:48:01;;;;;;;2.67;1.40;;;20.10;82.10;;;;;;6149401;23;20036;31
2023/07/01 06:50:27;;;;;;;2.45;1.55;;;20.00;81.90;;;;;;4939020;29;20043;-89
2023/07/01 06:52:53;;;;;;;2.50;1.50;;;20.00;82.20;;;;;;4938612;29;20030;-88
2023/07/01 09:34:00;;;;;;;2.15;1.40;;;20.10;82.60;;;;;;4997559;23;20247;-85
2023/07/01 09:36:27;;;;;;;2.78;1.45;;;20.10;82.50;;;;;;4918940;29;20028;-84
2023/07/01 09:38:54;;;;;;;2.53;1.60;;;20.10;82.60;;;;;;4916975;29;20038;-85
2023/07/01 09:41:24;;;;;;;2.67;1.50;;;20.10;82.60;;;;;;4934179;29;20401;-85
2023/07/01 09:43:53;;;;;;;2.47;1.40;;;20.10;82.70;;;;;;4915415;29;20020;-86
2023/07/01 09:46:19;;;;;;;2.17;1.40;;;20.10;82.50;;;;;;4906935;29;20032;-86
2023/07/01 09:48:55;;;;;;;2.33;1.30;;;20.10;82.70;;;;;;4898084;29;20417;-85
2023/07/01 09:51:22;;;;;;;2.03;1.40;;;20.00;82.60;;;;;;4898372;29;20480;-86
2023/07/01 09:53:48;;;;;;;2.03;1.40;;;20.10;82.70;;;;;;4898155;29;20570;-86
2023/07/01 09:56:16;;;;;;;1.95;1.45;;;20.20;82.80;;;;;;4923281;29;20133;-84
2023/07/01 09:58:43;;;;;;;2.83;1.40;;;20.10;82.60;;;;;;4897239;29;20115;-85
2023/07/01 10:01:14;;;;;;;2.83;1.40;;;20.10;82.70;;;;;;4897883;29;20035;-87
2023/07/01 11:45:20;;;;;;;2.60;1.40;;;20.10;83.20;;;;;;4946010;28;20059;-86
2023/07/01 11:47:46;;;;;;;2.45;1.50;;;20.10;83.40;;;;;;4953042;29;20776;-86
2023/07/01 11:50:11;;;;;;;2.20;1.30;;;20.10;83.30;;;;;;4950650;28;20031;-85
2023/07/01 11:52:46;;;;;;;2.25;1.50;;;20.10;83.30;;;;;;4936491;29;20038;-85
2023/07/01 11:55:11;;;;;;;1.98;1.40;;;20.00;83.30;;;;;;4942886;28;20476;-85
2023/07/01 11:57:37;;;;;;;2.85;1.73;;;20.00;83.40;;;;;;4934263;29;20043;-86
2023/07/01 12:00:03;;;;;;;2.47;1.50;;;18.60;82.50;;;;;;4964214;28;20214;-87
2023/07/01 12:02:33;;;;;;;2.05;1.42;;;20.10;83.10;;;;;;4968059;28;20027;-87
2023/07/01 12:05:00;;;;;;;2.45;1.40;;;19.00;82.50;;;;;;4948200;29;20050;-87
2023/07/01 12:07:26;;;;;;;2.80;1.40;;;20.20;83.20;;;;;;4928293;29;20070;-85
2023/07/01 12:10:22;;;;;;;2.20;1.40;;;20.10;83.00;;;;;;4935580;29;20059;-84
2023/07/01 12:12:47;;;;;;;3.30;1.67;;;19.60;82.70;;;;;;4935128;29;20030;-84
2023/07/01 12:15:13;;;;;;;2.75;1.40;;;20.20;83.00;;;;;;4929699;29;20404;-82
2023/07/01 12:17:39;;;;;;;2.35;1.45;;;20.80;83.30;;;;;;4949437;29;20027;-83
2023/07/01 12:39:17;;;;;;;2.15;1.30;;;20.10;83.30;;;;;;4972791;28;20387;-86
2023/07/01 13:02:31;;;;;;;2.30;1.48;;;20.00;83.40;;;;;;4840108;29;20065;-85
2023/07/01 13:05:22;;;;;;;2.60;1.48;;;20.30;83.70;;;;;;4825297;29;20034;-85
2023/07/01 13:07:59;;;;;;;4.78;1.40;;;20.20;83.60;;;;;;4858713;28;20400;-85
2023/07/01 13:10:30;;;;;;;3.78;1.40;;;20.00;83.60;;;;;;4954236;28;20050;-84
2023/07/01 13:13:01;;;;;;;;;;;20.50;83.80;;;;;;4953369;29;20121;-84
2023/07/01 13:16:20;;;;;;;4.38;1.75;;;19.90;83.60;;;;;;4936119;29;19950;-85
2023/07/01 13:18:48;;;;;;;2.60;1.35;;;20.00;83.70;;;;;;4909848;29;20067;-83
2023/07/01 13:21:16;;;;;;;2.78;1.42;;;18.60;82.90;;;;;;4936760;29;20042;-84
2023/07/01 13:23:53;;;;;;;4.57;1.70;;;20.00;83.60;;;;;;4949946;28;20035;-84
2023/07/01 13:26:22;;;;;;;2.38;1.25;;;20.50;83.80;;;;;;4935901;29;20046;-85
2023/07/01 13:28:50;;;;;;;3.72;1.50;;;20.00;83.70;;;;;;4967399;28;20031;-84
2023/07/01 13:32:01;;;;;;;2.28;1.33;;;20.30;83.90;;;;;;4958578;29;20024;-86
2023/07/01 13:35:23;;;;;;;;;;;;;;;;;;;;;
2023/07/01 13:37:44;;;;;;;2.72;1.35;;;20.10;83.60;;;;;;4954541;29;20755;-85
2023/07/01 13:41:29;;;;;;;1.98;1.30;;;20.60;83.70;;;;;;4941339;29;20095;-85
2023/07/01 13:47:13;;;;;;;2.42;1.40;;;20.10;83.40;;;;;;4957689;28;20387;-86
2023/07/01 13:53:19;;;;;;;4.00;1.40;;;20.10;83.40;;;;;;4957752;28;20516;-82
2023/07/01 13:55:51;;;;;;;1.70;1.13;;;20.20;83.40;;;;;;4935076;29;20023;-82
2023/07/01 13:58:17;;;;;;;2.25;1.30;;;20.20;83.30;;;;;;4938686;29;20035;-85
2023/07/01 14:00:56;;;;;;;3.92;1.77;;;20.20;83.30;;;;;;4939912;29;20144;-87
2023/07/01 14:06:52;;;;;;;2.00;1.35;;;20.10;83.50;;;;;;4937765;29;20524;-85
2023/07/01 15:50:04;;;;;;;2.20;1.35;;;20.00;84.40;;;;;;4982355;28;20093;-81
2023/07/01 15:52:30;;;;;;;1.98;1.30;;;20.00;84.40;;;;;;4969094;28;20090;-83
2023/07/01 15:54:55;;;;;;;2.00;1.25;;;20.00;84.40;;;;;;4961110;28;20031;-85
2023/07/01 15:57:21;;;;;;;1.83;1.17;;;20.00;84.40;;;;;;4957489;28;20472;-84
2023/07/01 15:59:48;;;;;;;1.85;1.40;;;20.00;84.50;;;;;;4955731;29;20106;-83
2023/07/01 16:02:13;;;;;;;1.77;1.20;;;20.00;84.50;;;;;;4954033;29;20089;-85
2023/07/01 16:43:29;;;;;;;3.00;1.40;;;20.10;84.90;;;;;;4972474;28;20050;-84
2023/07/01 17:13:39;;;;;;;2.28;1.33;;;20.00;85.00;;;;;;4919650;29;20122;-84
2023/07/01 17:16:06;;;;;;;3.25;1.52;;;19.90;85.00;;;;;;4900449;28;20062;-86
2023/07/01 17:18:33;;;;;;;2.78;1.42;;;20.00;85.00;;;;;;4979876;28;20476;-85
2023/07/01 17:20:59;;;;;;;4.10;1.40;;;20.00;85.00;;;;;;4979093;28;20031;-85
2023/07/01 17:23:25;;;;;;;4.53;1.80;;;19.90;84.90;;;;;;4979271;28;20026;-85
2023/07/01 17:25:54;;;;;;;2.40;1.40;;;19.90;85.00;;;;;;4976830;28;20015;-83
2023/07/01 17:28:19;;;;;;;2.25;1.30;;;20.00;85.00;;;;;;4958628;29;20491;-85
2023/07/01 17:30:45;;;;;;;2.75;1.30;;;19.90;85.00;;;;;;4959463;29;20032;-83
2023/07/01 17:33:12;;;;;;;1.80;1.40;;;19.90;85.00;;;;;;4961175;29;20490;-87
2023/07/01 17:35:37;;;;;;;2.60;1.58;;;19.90;85.10;;;;;;4974070;28;20386;-84
2023/07/01 17:38:03;;;;;;;3.50;1.55;;;19.90;85.00;;;;;;4981864;28;20117;-85
2023/07/01 17:40:29;;;;;;;2.20;1.45;;;19.90;85.10;;;;;;4981580;28;20065;-87
2023/07/01 17:42:54;;;;;;;3.05;1.60;;;19.90;85.10;;;;;;4981993;28;20030;-83
2023/07/01 17:47:52;;;;;;;3.15;1.70;;;19.90;85.00;;;;;;5000265;28;20046;-86
2023/07/01 18:24:11;;;;;;;;;;;;;;;;;;;;;
2023/07/01 18:30:04;;;;;;;4.03;1.83;;;19.90;85.10;;;;;;4825369;29;20053;-83
2023/07/01 18:32:30;;;;;;;2.60;1.50;;;19.90;85.20;;;;;;4829407;29;20136;-84
2023/07/01 18:34:55;;;;;;;2.10;1.50;;;19.90;85.30;;;;;;4914156;29;20051;-84
2023/07/01 18:37:21;;;;;;;2.72;1.60;;;19.90;85.30;;;;;;4969480;23;20186;-83
2023/07/01 18:39:46;;;;;;;2.25;1.58;;;19.90;85.40;;;;;;4938411;29;20083;-83
2023/07/01 18:42:12;;;;;;;1.95;1.38;;;19.90;85.30;;;;;;4934645;29;20087;-82
2023/07/01 18:44:37;;;;;;;2.85;1.40;;;19.90;85.40;;;;;;4936668;29;20030;-82
2023/07/01 18:47:03;;;;;;;1.98;1.42;;;19.90;86.00;;;;;;4930985;29;20043;-81
2023/07/01 18:49:28;;;;;;;2.40;1.45;;;19.90;85.40;;;;;;4918989;29;20024;-82
2023/07/01 18:51:54;;;;;;;2.20;1.42;;;19.90;85.40;;;;;;4951841;29;20058;-82
2023/07/01 18:54:19;;;;;;;3.83;1.50;;;19.90;85.40;;;;;;4954517;29;20043;-83
2023/07/01 18:56:45;;;;;;;3.20;1.50;;;19.90;85.40;;;;;;4936385;29;20461;-80
2023/07/01 18:59:10;;;;;;;3.15;1.73;;;19.90;85.40;;;;;;4937649;29;20071;-83
2023/07/01 19:01:36;;;;;;;2.50;1.50;;;19.90;85.40;;;;;;4937856;29;20035;-81
2023/07/01 19:04:02;;;;;;;2.42;1.58;;;19.90;85.40;;;;;;4954704;29;20066;-81
2023/07/01 19:06:28;;;;;;;2.35;1.52;;;19.90;85.40;;;;;;4954486;29;20050;-83
2023/07/01 19:08:53;;;;;;;2.35;1.40;;;19.80;85.30;;;;;;4937656;29;20484;-80
2023/07/01 19:11:19;;;;;;;2.60;1.40;;;19.90;85.40;;;;;;4937575;29;20091;-83
2023/07/01 19:13:44;;;;;;;2.75;1.50;;;19.90;85.50;;;;;;4937343;29;20031;-80
2023/07/01 19:16:10;;;;;;;3.47;1.67;;;19.80;85.40;;;;;;4937446;29;20381;-80
2023/07/01 19:18:39;;;;;;;2.30;1.40;;;19.90;85.60;;;;;;4937386;29;20106;-83
2023/07/01 19:21:05;;;;;;;2.53;1.80;;;19.90;85.60;;;;;;4937283;29;20027;-82
2023/07/01 19:23:32;;;;;;;2.30;1.40;;;19.80;85.40;;;;;;4937359;29;20104;-82
2023/07/01 19:25:58;;;;;;;2.15;1.30;;;19.90;85.40;;;;;;4937254;29;20062;-82
2023/07/01 19:28:24;;;;;;;2.53;1.50;;;19.90;85.30;;;;;;4936995;29;20059;-82
2023/07/01 19:30:50;;;;;;;2.42;1.50;;;19.90;85.30;;;;;;4937344;29;20110;-82
2023/07/01 19:33:18;;;;;;;2.25;1.67;;;20.00;85.20;;;;;;4937278;29;20435;-82
2023/07/01 19:35:53;;;;;;;2.03;1.42;;;20.00;85.20;;;;;;4937421;29;20034;-82
2023/07/01 19:38:19;;;;;;;2.75;1.40;;;20.00;85.10;;;;;;4921073;29;20704;-83
2023/07/01 19:40:45;;;;;;;2.67;1.50;;;20.00;85.20;;;;;;4918039;29;20536;-81
2023/07/01 19:43:11;;;;;;;2.03;1.40;;;20.00;85.10;;;;;;4917953;29;20032;-82
2023/07/01 19:45:37;;;;;;;2.15;1.60;;;20.00;85.10;;;;;;4918041;29;20020;-82
2023/07/01 19:48:02;;;;;;;2.78;1.52;;;20.00;85.10;;;;;;4917553;29;20496;-81
2023/07/01 19:50:28;;;;;;;3.10;1.60;;;20.00;85.20;;;;;;4918177;29;20505;-81
2023/07/01 19:52:53;;;;;;;2.90;1.73;;;20.00;85.20;;;;;;4935052;29;20039;-81
2023/07/01 19:55:19;;;;;;;2.30;1.42;;;19.90;85.20;;;;;;4918177;29;20031;-81
2023/07/01 19:57:44;;;;;;;2.80;1.70;;;19.90;85.20;;;;;;4912661;29;20036;-81
2023/07/01 20:00:11;;;;;;;2.15;1.50;;;19.90;85.30;;;;;;4917121;29;20036;-82
2023/07/01 20:02:37;;;;;;;2.95;1.80;;;19.90;85.30;;;;;;4917895;29;20059;-82
2023/07/01 20:05:06;;;;;;;2.92;1.50;;;19.90;85.40;;;;;;4917808;29;20026;-82
2023/07/01 20:07:33;;;;;;;2.95;1.50;;;19.90;85.50;;;;;;4934371;29;20028;-83
2023/07/01 20:09:59;;;;;;;2.10;1.50;;;19.90;85.50;;;;;;4917710;29;20044;-81
2023/07/01 20:12:26;;;;;;;3.28;1.60;;;19.90;85.60;;;;;;4917758;29;20032;-83
2023/07/01 20:14:52;;;;;;;2.53;1.50;;;19.90;85.60;;;;;;4917959;29;20028;-82
2023/07/01 20:17:20;;;;;;;2.67;1.60;;;19.90;85.70;;;;;;4917344;29;20031;-81
2023/07/01 20:19:47;;;;;;;2.78;1.70;;;19.80;85.60;;;;;;4917989;29;20024;-83
2023/07/01 20:22:14;;;;;;;3.10;1.48;;;19.80;86.10;;;;;;4934766;29;20481;-82
2023/07/01 20:24:40;;;;;;;3.22;1.75;;;19.80;85.60;;;;;;4918115;29;20042;-82
2023/07/01 20:27:06;;;;;;;2.20;1.48;;;19.80;86.10;;;;;;4917469;29;20040;-82
2023/07/01 20:29:32;;;;;;;2.60;1.58;;;19.80;85.60;;;;;;4934798;29;20024;-81
2023/07/01 20:31:58;;;;;;;2.60;1.60;;;19.80;85.70;;;;;;4917651;29;20028;-83
2023/07/01 20:34:23;;;;;;;2.72;1.63;;;19.80;85.70;;;;;;4917928;29;20540;-81
2023/07/01 20:36:50;;;;;;;2.33;1.60;;;19.80;85.60;;;;;;4917501;29;20437;-83
2023/07/01 20:39:15;;;;;;;2.35;1.50;;;19.80;85.70;;;;;;4917716;29;20031;-81
2023/07/01 20:41:41;;;;;;;2.28;1.52;;;19.80;85.70;;;;;;4917583;29;20027;-83
2023/07/01 20:44:06;;;;;;;2.65;1.50;;;19.80;85.70;;;;;;4920161;29;20074;-82
2023/07/01 20:46:32;;;;;;;2.72;1.40;;;19.80;85.70;;;;;;4921012;29;20404;-82
2023/07/01 20:48:57;;;;;;;3.00;1.70;;;19.80;85.70;;;;;;4921205;29;20043;-80
2023/07/01 20:51:23;;;;;;;7.38;2.55;;;19.80;85.80;;;;;;4921173;29;20071;-82
2023/07/01 20:53:48;;;;;;;7.88;3.20;;;19.80;87.10;;;;;;4921055;29;20031;-84
2023/07/01 20:56:14;;;;;;;7.60;3.53;;;19.70;87.80;;;;;;4920728;29;20035;-81
2023/07/01 20:58:40;;;;;;;7.68;3.40;;;19.70;88.20;;;;;;4920203;29;20031;-80
2023/07/01 21:01:06;;;;;;;8.32;3.42;;;19.70;88.40;;;;;;4937685;29;20032;-82
2023/07/01 21:03:31;;;;;;;7.13;3.40;;;19.70;88.60;;;;;;4920586;29;20031;-82
2023/07/01 21:05:57;;;;;;;8.20;3.40;;;19.70;88.70;;;;;;4920348;29;20043;-83
2023/07/01 21:08:22;;;;;;;6.18;3.00;;;19.70;88.60;;;;;;4920094;29;20670;-82
2023/07/01 21:10:48;;;;;;;8.15;3.42;;;19.70;88.60;;;;;;4937411;29;20027;-81
2023/07/01 21:13:13;;;;;;;6.43;2.80;;;19.70;88.60;;;;;;4920393;29;20037;-83
2023/07/01 21:15:39;;;;;;;5.68;3.20;;;19.70;88.60;;;;;;4920298;29;20035;-83
2023/07/01 21:18:04;;;;;;;5.80;3.30;;;19.70;88.70;;;;;;4919649;29;20051;-82
2023/07/01 21:20:32;;;;;;;7.13;2.80;;;19.70;88.50;;;;;;4920223;29;20038;-83
2023/07/01 21:22:57;;;;;;;7.32;3.28;;;19.70;88.60;;;;;;4920078;29;20032;-83
2023/07/01 21:25:22;;;;;;;5.65;3.03;;;19.70;88.80;;;;;;4920131;29;20128;-82
2023/07/01 21:27:55;;;;;;;4.43;2.92;;;19.70;88.80;;;;;;4936503;29;20080;-83
2023/07/01 21:30:34;;;;;;;6.03;3.03;;;19.60;89.10;;;;;;4919906;29;20027;-84
2023/07/01 21:33:00;;;;;;;5.93;3.15;;;19.60;89.10;;;;;;4919817;29;20039;-83
2023/07/01 21:35:38;;;;;;;5.10;3.10;;;19.60;89.20;;;;;;4920353;29;20032;-83
2023/07/01 21:38:05;;;;;;;5.32;3.38;;;19.60;89.30;;;;;;4933066;29;20035;-84
2023/07/01 21:40:48;;;;;;;5.78;2.80;;;19.60;89.40;;;;;;4939172;29;20562;-84
2023/07/01 21:43:21;;;;;;;4.97;3.22;;;19.60;89.40;;;;;;4939109;29;20039;-83
2023/07/01 21:45:51;;;;;;;5.63;3.00;;;19.60;89.50;;;;;;4956355;29;20074;-83
2023/07/01 21:48:24;;;;;;;6.40;3.10;;;19.50;89.40;;;;;;4955808;29;20027;-81
2023/07/01 21:51:03;;;;;;;5.55;3.10;;;19.60;89.60;;;;;;4938948;29;20024;-84
2023/07/01 21:53:38;;;;;;;5.72;3.03;;;19.50;89.50;;;;;;4939060;28;20114;-82
2023/07/01 21:56:09;;;;;;;5.00;3.30;;;19.50;89.60;;;;;;4955307;29;20047;-83
2023/07/01 21:58:48;;;;;;;4.45;2.75;;;19.50;89.60;;;;;;4938593;29;20024;-84
2023/07/01 22:01:25;;;;;;;6.32;3.20;;;19.50;89.60;;;;;;4956072;29;20027;-83
2023/07/01 22:03:58;;;;;;;4.75;3.10;;;19.50;89.80;;;;;;4955945;29;20086;-83
2023/07/01 22:06:37;;;;;;;6.55;3.67;;;19.50;89.70;;;;;;4938154;29;20027;-82
2023/07/01 22:09:03;;;;;;;5.78;3.10;;;19.50;89.70;;;;;;4954632;29;20058;-83
2023/07/01 22:11:28;;;;;;;4.65;2.83;;;19.50;89.80;;;;;;4955756;29;20461;-83
2023/07/01 22:13:54;;;;;;;6.70;3.35;;;19.50;89.80;;;;;;4938665;29;20106;-83
2023/07/01 22:16:21;;;;;;;6.18;3.20;;;19.50;89.80;;;;;;4954043;29;20105;-84
2023/07/01 22:18:47;;;;;;;5.60;3.33;;;19.50;89.80;;;;;;4938490;29;20034;-82
2023/07/01 22:21:13;;;;;;;6.18;3.50;;;19.50;89.80;;;;;;4938431;29;20034;-84
2023/07/01 22:23:38;;;;;;;6.30;3.17;;;19.50;89.80;;;;;;4938349;29;20027;-84
2023/07/01 22:26:04;;;;;;;5.35;2.95;;;19.50;89.80;;;;;;4938355;29;20034;-83
2023/07/01 22:28:30;;;;;;;7.38;3.25;;;19.50;89.60;;;;;;4937931;29;20401;-83
2023/07/01 22:30:56;;;;;;;6.97;3.40;;;19.50;89.60;;;;;;4938263;29;20024;-82
2023/07/01 22:33:22;;;;;;;5.07;2.90;;;19.50;89.50;;;;;;4938571;29;20465;-82
2023/07/01 22:35:47;;;;;;;6.47;3.45;;;19.50;89.40;;;;;;4955457;29;20067;-83
2023/07/01 22:38:13;;;;;;;4.97;3.30;;;19.50;89.40;;;;;;4934397;29;20130;-82
2023/07/01 22:40:38;;;;;;;5.78;3.47;;;19.60;89.30;;;;;;4918818;29;20130;-82
2023/07/01 22:43:04;;;;;;;7.40;3.60;;;19.60;89.30;;;;;;4919040;29;20075;-82
2023/07/01 22:45:29;;;;;;;6.55;3.10;;;19.60;89.20;;;;;;4919151;29;20396;-82
2023/07/01 22:47:55;;;;;;;6.88;3.10;;;19.50;89.00;;;;;;4918533;29;20087;-81
2023/07/01 22:50:22;;;;;;;6.20;3.03;;;19.50;89.00;;;;;;4936033;29;20043;-81
2023/07/01 22:52:49;;;;;;;5.07;3.33;;;19.60;89.00;;;;;;4919017;29;20044;-82
2023/07/01 22:55:20;;;;;;;6.25;3.05;;;19.60;89.00;;;;;;4935989;29;20087;-81
2023/07/01 22:57:49;;;;;;;6.03;3.30;;;19.60;88.90;;;;;;4918318;29;20035;-83
2023/07/01 23:00:16;;;;;;;5.03;3.00;;;19.60;89.10;;;;;;4918828;29;20079;-82
2023/07/01 23:02:42;;;;;;;5.50;2.95;;;19.50;89.10;;;;;;4918770;29;20052;-81
2023/07/01 23:05:09;;;;;;;5.57;3.38;;;19.50;89.20;;;;;;4918690;29;20055;-83
2023/07/01 23:07:35;;;;;;;5.93;3.45;;;19.50;89.30;;;;;;4935252;29;20597;-81
2023/07/01 23:10:01;;;;;;;5.68;3.25;;;19.50;89.40;;;;;;4935693;29;20027;-83
2023/07/01 23:12:28;;;;;;;5.60;3.15;;;19.50;89.50;;;;;;4935617;29;20110;-83
2023/07/01 23:14:57;;;;;;;5.82;2.88;;;19.50;89.50;;;;;;4935698;29;20103;-82
2023/07/01 23:17:24;;;;;;;5.50;3.17;;;19.40;89.50;;;;;;4935104;29;20027;-83
2023/07/01 23:19:49;;;;;;;5.05;3.00;;;19.40;89.50;;;;;;4918323;29;20129;-82
2023/07/01 23:22:15;;;;;;;7.18;3.40;;;19.40;89.60;;;;;;4935379;29;20393;-82
2023/07/01 23:24:47;;;;;;;6.68;3.55;;;19.40;89.50;;;;;;4918390;29;20024;-83
2023/07/01 23:27:18;;;;;;;6.40;3.20;;;19.40;89.50;;;;;;4912064;29;20028;-82
2023/07/01 23:29:44;;;;;;;7.07;3.30;;;19.40;89.50;;;;;;4916436;29;20028;-82
2023/07/01 23:32:14;;;;;;;7.85;3.38;;;19.40;89.50;;;;;;4915161;29;20036;-82